createdAt,value
2018-12-23T00:01:43.518Z,4.10
2018-12-23T00:04:12.750Z,4.20
2018-12-23T00:06:42.062Z,4.43
2018-12-23T00:09:11.251Z,4.67
2018-12-23T00:11:40.474Z,5.90
2018-12-23T00:14:09.684Z,5.07
2018-12-23T00:16:38.958Z,4.47
2018-12-23T00:19:08.186Z,3.90
2018-12-23T00:21:37.378Z,3.13
2018-12-23T00:24:06.631Z,3.00
2018-12-23T00:26:35.878Z,3.03
2018-12-23T00:29:05.092Z,2.80
2018-12-23T00:31:34.318Z,3.17
2018-12-23T00:34:03.594Z,3.40
2018-12-23T00:36:32.814Z,3.23
2018-12-23T00:39:02.099Z,2.77
2018-12-23T00:41:31.309Z,2.70
2018-12-23T00:44:00.526Z,2.97
2018-12-23T00:46:29.776Z,2.33
2018-12-23T00:48:59.051Z,2.37
2018-12-23T00:51:28.304Z,3.00
2018-12-23T00:53:57.548Z,2.90
2018-12-23T00:56:26.829Z,3.13
2018-12-23T00:58:56.044Z,4.73
2018-12-23T01:01:25.234Z,7.12
2018-12-23T01:03:54.576Z,6.47
2018-12-23T01:06:23.768Z,6.53
2018-12-23T01:08:53.088Z,5.63
2018-12-23T01:11:22.343Z,4.10
2018-12-23T01:13:51.606Z,4.77
2018-12-23T01:16:20.862Z,4.33
2018-12-23T01:18:50.115Z,4.13
2018-12-23T01:21:19.307Z,4.30
2018-12-23T01:23:48.501Z,3.60
2018-12-23T01:26:17.756Z,2.83
2018-12-23T01:28:46.986Z,3.30
2018-12-23T01:31:16.217Z,3.23
2018-12-23T01:33:45.469Z,2.87
2018-12-23T01:36:14.734Z,2.60
2018-12-23T01:38:43.948Z,2.60
2018-12-23T01:41:13.179Z,2.60
2018-12-23T01:43:42.423Z,2.43
2018-12-23T01:46:11.626Z,2.80
2018-12-23T01:48:40.843Z,2.30
2018-12-23T01:51:10.065Z,2.53
2018-12-23T01:53:39.271Z,2.77
2018-12-23T01:56:08.577Z,2.60
2018-12-23T01:58:37.794Z,2.20
2018-12-23T02:01:07.023Z,2.40
2018-12-23T02:03:36.260Z,2.43
2018-12-23T02:06:05.519Z,1.50
2018-12-23T02:08:34.774Z,1.47
2018-12-23T02:11:04.046Z,1.20
2018-12-23T02:13:33.314Z,1.50
2018-12-23T02:16:02.568Z,1.60
2018-12-23T02:18:31.851Z,1.30
2018-12-23T02:21:01.047Z,1.30
2018-12-23T02:23:30.221Z,1.70
2018-12-23T02:25:59.519Z,1.40
2018-12-23T02:28:28.749Z,1.90
2018-12-23T02:30:57.971Z,1.83
2018-12-23T02:33:27.700Z,1.87
2018-12-23T02:35:56.969Z,1.60
2018-12-23T02:38:26.155Z,2.47
2018-12-23T02:40:55.417Z,2.40
2018-12-23T02:43:24.990Z,1.83
2018-12-23T02:45:54.205Z,2.10
2018-12-23T02:48:23.482Z,1.60
2018-12-23T02:50:52.790Z,1.30
2018-12-23T02:53:22.007Z,2.17
2018-12-23T02:55:51.231Z,1.80
2018-12-23T02:58:20.419Z,2.20
2018-12-23T03:00:49.662Z,2.03
2018-12-23T03:03:18.912Z,1.77
2018-12-23T03:05:48.281Z,2.57
2018-12-23T03:08:17.507Z,1.90
2018-12-23T03:10:46.739Z,2.13
2018-12-23T03:13:16.023Z,2.47
2018-12-23T03:15:45.239Z,1.80
2018-12-23T03:18:14.477Z,2.07
2018-12-23T03:20:43.817Z,1.60
2018-12-23T03:23:13.044Z,1.80
2018-12-23T03:25:42.305Z,1.57
2018-12-23T03:28:11.500Z,1.77
2018-12-23T03:30:40.745Z,2.27
2018-12-23T03:33:10.014Z,1.90
2018-12-23T03:35:39.232Z,1.90
2018-12-23T03:38:08.438Z,1.80
2018-12-23T03:40:37.724Z,1.60
2018-12-23T03:43:06.919Z,1.90
2018-12-23T03:45:36.313Z,2.17
2018-12-23T03:48:05.598Z,1.50
2018-12-23T03:50:35.169Z,1.63
2018-12-23T03:53:04.371Z,1.50
2018-12-23T03:55:33.659Z,1.87
2018-12-23T03:58:02.826Z,2.30
2018-12-23T04:00:32.072Z,1.13
2018-12-23T04:03:01.332Z,1.30
2018-12-23T04:05:30.543Z,1.83
2018-12-23T04:07:59.774Z,1.27
2018-12-23T04:10:29.189Z,1.47
2018-12-23T04:12:58.523Z,1.77
2018-12-23T04:15:27.815Z,1.40
2018-12-23T04:17:57.187Z,1.30
2018-12-23T04:20:26.350Z,1.80
2018-12-23T04:22:55.583Z,1.60
2018-12-23T04:25:24.850Z,1.90
2018-12-23T04:27:54.091Z,1.73
2018-12-23T04:30:23.367Z,1.90
2018-12-23T04:32:52.621Z,1.93
2018-12-23T04:35:21.853Z,1.80
2018-12-23T04:37:51.066Z,1.73
2018-12-23T04:40:20.298Z,1.70
2018-12-23T04:42:49.516Z,1.63
2018-12-23T04:45:18.727Z,1.80
2018-12-23T04:47:47.997Z,1.67
2018-12-23T04:50:17.180Z,1.60
2018-12-23T04:52:47.003Z,1.23
2018-12-23T04:55:16.256Z,1.70
2018-12-23T04:57:45.501Z,1.73
2018-12-23T05:00:14.739Z,1.23
2018-12-23T05:02:43.965Z,1.27
2018-12-23T05:05:13.170Z,1.20
2018-12-23T05:07:42.355Z,1.20
2018-12-23T05:10:11.601Z,1.90
2018-12-23T05:12:40.838Z,1.50
2018-12-23T05:15:10.039Z,1.17
2018-12-23T05:17:39.386Z,1.67
2018-12-23T05:20:08.619Z,1.70
2018-12-23T05:22:37.818Z,1.00
2018-12-23T05:25:07.114Z,1.33
2018-12-23T05:27:36.373Z,1.27
2018-12-23T05:30:05.749Z,1.30
2018-12-23T05:32:35.015Z,1.60
2018-12-23T05:35:04.398Z,1.60
2018-12-23T05:37:33.625Z,1.43
2018-12-23T05:40:02.846Z,1.87
2018-12-23T05:42:32.058Z,1.10
2018-12-23T05:45:01.334Z,1.00
2018-12-23T05:47:30.644Z,1.20
2018-12-23T05:49:59.851Z,0.90
2018-12-23T05:52:29.075Z,0.93
2018-12-23T05:54:58.292Z,1.50
2018-12-23T05:57:27.495Z,1.40
2018-12-23T05:59:56.730Z,0.90
2018-12-23T06:02:25.975Z,1.20
2018-12-23T06:04:55.188Z,1.20
2018-12-23T06:07:24.394Z,1.50
2018-12-23T06:09:53.636Z,1.40
2018-12-23T06:12:22.846Z,1.13
2018-12-23T06:14:52.071Z,1.50
2018-12-23T06:17:21.253Z,1.30
2018-12-23T06:19:50.559Z,1.40
2018-12-23T06:22:19.779Z,1.60
2018-12-23T06:24:49.042Z,1.50
2018-12-23T06:27:18.269Z,1.20
2018-12-23T06:29:47.495Z,1.30
2018-12-23T06:32:17.118Z,1.10
2018-12-23T06:34:46.355Z,1.20
2018-12-23T06:37:15.568Z,1.53
2018-12-23T06:39:44.815Z,1.30
2018-12-23T06:42:14.055Z,1.40
2018-12-23T06:44:43.290Z,1.30
2018-12-23T06:47:12.609Z,1.00
2018-12-23T06:49:41.831Z,1.60
2018-12-23T06:52:11.161Z,1.30
2018-12-23T06:54:40.399Z,1.70
2018-12-23T06:57:09.642Z,1.03
2018-12-23T06:59:38.902Z,1.37
2018-12-23T07:02:08.125Z,1.40
2018-12-23T07:04:37.342Z,1.23
2018-12-23T07:07:06.565Z,1.53
2018-12-23T07:09:35.801Z,1.77
2018-12-23T07:12:05.088Z,1.90
2018-12-23T07:14:34.352Z,1.77
2018-12-23T07:17:03.614Z,1.80
2018-12-23T07:19:32.827Z,3.07
2018-12-23T07:22:02.159Z,3.20
2018-12-23T07:24:31.987Z,2.80
2018-12-23T07:27:01.218Z,1.83
2018-12-23T07:29:30.417Z,3.40
2018-12-23T07:31:59.641Z,2.30
2018-12-23T07:34:28.875Z,2.30
2018-12-23T07:36:58.091Z,2.07
2018-12-23T07:39:27.286Z,2.23
2018-12-23T07:41:56.518Z,1.97
2018-12-23T07:44:25.754Z,2.70
2018-12-23T07:46:54.968Z,1.93
2018-12-23T07:49:24.190Z,2.03
2018-12-23T07:51:53.412Z,2.40
2018-12-23T07:54:22.676Z,2.63
2018-12-23T07:56:51.875Z,2.73
2018-12-23T07:59:21.090Z,2.70
2018-12-23T08:01:50.395Z,2.53
2018-12-23T08:04:19.644Z,2.60
2018-12-23T08:06:48.907Z,2.47
2018-12-23T08:09:18.161Z,4.20
2018-12-23T08:11:47.389Z,3.17
2018-12-23T08:14:16.691Z,2.87
2018-12-23T08:16:45.926Z,3.13
2018-12-23T08:19:15.128Z,2.93
2018-12-23T08:21:44.376Z,3.83
2018-12-23T08:24:13.682Z,2.37
2018-12-23T08:26:42.921Z,3.60
2018-12-23T08:29:12.111Z,4.10
2018-12-23T08:31:41.341Z,3.23
2018-12-23T08:34:10.586Z,3.53
2018-12-23T08:36:39.791Z,3.30
2018-12-23T08:39:09.062Z,3.80
2018-12-23T08:41:38.293Z,4.97
2018-12-23T08:44:07.450Z,4.30
2018-12-23T08:46:39.229Z,4.10
2018-12-23T08:49:07.982Z,4.90
2018-12-23T08:51:37.451Z,4.67
2018-12-23T08:54:06.655Z,3.45
2018-12-23T08:56:35.863Z,3.40
2018-12-23T08:59:05.130Z,3.73
2018-12-23T09:01:34.361Z,3.03
2018-12-23T09:04:03.570Z,3.67
2018-12-23T09:06:32.822Z,3.60
2018-12-23T09:09:02.069Z,3.80
2018-12-23T09:11:31.247Z,4.10
2018-12-23T09:14:00.546Z,5.90
2018-12-23T09:16:29.751Z,5.53
2018-12-23T09:18:58.986Z,4.63
2018-12-23T09:21:28.221Z,4.90
2018-12-23T09:23:57.447Z,4.60
2018-12-23T09:26:26.739Z,2.60
2018-12-23T09:28:56.031Z,3.37
2018-12-23T09:31:25.272Z,4.37
2018-12-23T09:33:55.500Z,3.90
2018-12-23T09:36:25.801Z,3.50
2018-12-23T09:38:55.049Z,3.40
2018-12-23T09:41:24.268Z,2.73
2018-12-23T09:43:53.539Z,3.13
2018-12-23T09:46:22.782Z,5.00
2018-12-23T09:48:52.007Z,3.90
2018-12-23T09:51:21.250Z,3.30
2018-12-23T09:53:50.467Z,3.70
2018-12-23T09:56:19.763Z,3.87
2018-12-23T09:58:49.003Z,3.60
2018-12-23T10:01:18.230Z,3.10
2018-12-23T10:03:47.458Z,3.00
2018-12-23T10:06:16.994Z,3.30
2018-12-23T10:08:46.206Z,2.87
2018-12-23T10:11:15.430Z,3.22
2018-12-23T10:13:44.805Z,3.00
2018-12-23T10:16:14.090Z,3.17
2018-12-23T10:18:43.372Z,2.97
2018-12-23T10:21:12.641Z,2.60
2018-12-23T10:23:41.844Z,2.97
2018-12-23T10:26:11.055Z,2.50
2018-12-23T10:28:40.366Z,2.10
2018-12-23T10:31:09.561Z,2.80
2018-12-23T10:33:38.717Z,2.70
2018-12-23T10:36:07.981Z,2.77
2018-12-23T10:38:37.213Z,2.93
2018-12-23T10:41:06.436Z,2.83
2018-12-23T10:43:35.710Z,2.70
2018-12-23T10:46:05.015Z,2.80
2018-12-23T10:48:34.227Z,3.57
2018-12-23T10:51:03.527Z,3.37
2018-12-23T10:53:33.259Z,2.77
2018-12-23T10:56:02.499Z,2.80
2018-12-23T10:58:32.341Z,2.70
2018-12-23T11:01:01.821Z,2.70
2018-12-23T11:03:31.111Z,3.07
2018-12-23T11:06:00.382Z,2.67
2018-12-23T11:08:29.600Z,3.70
2018-12-23T11:10:59.726Z,2.90
2018-12-23T11:13:29.007Z,3.70
2018-12-23T11:15:58.265Z,4.10
2018-12-23T11:18:27.511Z,3.47
2018-12-23T11:20:56.714Z,3.30
2018-12-23T11:23:25.904Z,2.80
2018-12-23T11:25:55.162Z,3.67
2018-12-23T11:28:24.407Z,3.40
2018-12-23T11:30:53.682Z,2.87
2018-12-23T11:33:22.974Z,3.53
2018-12-23T11:35:52.195Z,3.27
2018-12-23T11:38:21.451Z,2.90
2018-12-23T11:40:50.760Z,3.00
2018-12-23T11:43:19.955Z,3.13
2018-12-23T11:45:49.219Z,2.90
2018-12-23T11:48:18.481Z,2.77
2018-12-23T11:50:47.691Z,2.70
2018-12-23T11:53:17.498Z,2.70
2018-12-23T11:55:46.777Z,3.10
2018-12-23T11:58:16.011Z,2.13
2018-12-23T12:00:45.193Z,2.53
2018-12-23T12:03:14.454Z,2.43
2018-12-23T12:05:43.663Z,3.43
2018-12-23T12:08:12.883Z,3.67
2018-12-23T12:10:42.091Z,2.40
2018-12-23T12:13:11.335Z,2.37
2018-12-23T12:15:40.542Z,2.33
2018-12-23T12:18:09.751Z,2.30
2018-12-23T12:20:38.960Z,2.60
2018-12-23T12:23:08.155Z,2.70
2018-12-23T12:25:37.375Z,2.90
2018-12-23T12:28:06.581Z,3.07
2018-12-23T12:30:35.837Z,3.33
2018-12-23T12:33:05.138Z,3.37
2018-12-23T12:35:34.330Z,3.10
2018-12-23T12:38:03.592Z,2.50
2018-12-23T12:40:32.847Z,1.67
2018-12-23T12:43:02.022Z,2.03
2018-12-23T12:45:31.255Z,2.40
2018-12-23T12:48:00.500Z,1.93
2018-12-23T12:50:29.734Z,1.70
2018-12-23T12:52:58.952Z,1.87
2018-12-23T12:55:28.220Z,1.30
2018-12-23T12:57:57.425Z,1.60
2018-12-23T13:00:26.673Z,1.40
2018-12-23T13:02:55.863Z,2.03
2018-12-23T13:05:25.043Z,1.90
2018-12-23T13:07:54.244Z,2.10
2018-12-23T13:10:23.556Z,1.90
2018-12-23T13:12:52.821Z,1.30
2018-12-23T13:15:22.043Z,1.83
2018-12-23T13:17:51.309Z,1.83
2018-12-23T13:20:20.511Z,1.20
2018-12-23T13:22:49.735Z,2.27
2018-12-23T13:25:19.012Z,2.67
2018-12-23T13:27:48.253Z,2.40
2018-12-23T13:30:17.463Z,2.00
2018-12-23T13:32:46.675Z,2.20
2018-12-23T13:35:16.001Z,1.77
2018-12-23T13:37:45.286Z,2.10
2018-12-23T13:40:21.982Z,1.70
2018-12-23T13:43:05.602Z,1.50
2018-12-23T13:45:50.602Z,3.23
2018-12-23T13:48:36.804Z,1.97
2018-12-23T13:52:16.886Z,1.70
2018-12-23T13:55:54.871Z,1.70
2018-12-23T13:59:32.251Z,1.10
2018-12-23T14:02:14.442Z,1.97
2018-12-23T14:05:52.562Z,1.47
2018-12-23T14:08:34.666Z,2.57
2018-12-23T14:11:36.562Z,2.23
2018-12-23T14:14:06.374Z,2.70
2018-12-23T14:16:36.044Z,2.27
2018-12-23T14:19:05.435Z,2.47
2018-12-23T14:21:34.748Z,2.33
2018-12-23T14:24:03.997Z,2.50
2018-12-23T14:26:33.270Z,2.30
2018-12-23T14:29:02.510Z,2.70
2018-12-23T14:31:31.735Z,2.33
2018-12-23T14:34:01.001Z,2.07
2018-12-23T14:36:30.303Z,1.87
2018-12-23T14:38:59.542Z,2.20
2018-12-23T14:41:28.791Z,2.13
2018-12-23T14:43:57.951Z,2.20
2018-12-23T14:46:27.226Z,2.20
2018-12-23T14:48:56.441Z,1.80
2018-12-23T14:51:25.670Z,2.30
2018-12-23T14:53:54.879Z,2.73
2018-12-23T14:56:24.069Z,2.13
2018-12-23T14:58:53.927Z,2.83
2018-12-23T15:01:23.270Z,3.20
2018-12-23T15:03:52.472Z,2.33
2018-12-23T15:06:22.102Z,2.60
2018-12-23T15:08:51.331Z,2.30
2018-12-23T15:11:20.563Z,1.83
2018-12-23T15:13:49.782Z,2.07
2018-12-23T15:16:19.057Z,1.57
2018-12-23T15:18:48.817Z,1.40
2018-12-23T15:21:18.078Z,1.80
2018-12-23T15:23:47.371Z,1.90
2018-12-23T15:26:16.552Z,2.13
2018-12-23T15:28:45.851Z,1.90
2018-12-23T15:31:15.058Z,1.90
2018-12-23T15:33:44.254Z,2.77
2018-12-23T15:36:13.514Z,1.53
2018-12-23T15:38:42.769Z,1.80
2018-12-23T15:41:12.006Z,2.00
2018-12-23T15:43:41.218Z,2.40
2018-12-23T15:46:10.472Z,1.67
2018-12-23T15:48:40.174Z,2.30
2018-12-23T15:51:09.459Z,2.30
2018-12-23T15:53:38.687Z,2.30
2018-12-23T15:56:07.897Z,2.27
2018-12-23T15:58:37.155Z,2.63
2018-12-23T16:01:06.372Z,2.23
2018-12-23T16:03:35.694Z,2.40
2018-12-23T16:06:04.946Z,2.57
2018-12-23T16:08:34.181Z,2.90
2018-12-23T16:11:03.418Z,3.30
2018-12-23T16:13:32.726Z,2.80
2018-12-23T16:16:01.919Z,3.20
2018-12-23T16:18:31.154Z,2.43
2018-12-23T16:21:00.420Z,2.83
2018-12-23T16:23:29.615Z,2.80
2018-12-23T16:25:58.838Z,2.60
2018-12-23T16:28:28.059Z,3.60
2018-12-23T16:30:57.284Z,2.60
2018-12-23T16:33:26.512Z,3.00
2018-12-23T16:35:55.726Z,2.63
2018-12-23T16:38:25.106Z,3.63
2018-12-23T16:40:54.460Z,3.47
2018-12-23T16:43:23.712Z,4.10
2018-12-23T16:45:52.914Z,4.10
2018-12-23T16:48:22.123Z,4.77
2018-12-23T16:50:51.415Z,3.00
2018-12-23T16:53:20.642Z,3.10
2018-12-23T16:55:49.864Z,4.03
2018-12-23T16:58:19.086Z,3.30
2018-12-23T17:00:48.332Z,4.07
2018-12-23T17:03:17.598Z,2.90
2018-12-23T17:05:46.825Z,4.00
2018-12-23T17:08:16.055Z,3.07
2018-12-23T17:10:45.248Z,2.97
2018-12-23T17:13:14.491Z,2.90
2018-12-23T17:15:43.723Z,2.43
2018-12-23T17:18:13.407Z,2.40
2018-12-23T17:20:42.657Z,2.73
2018-12-23T17:23:11.879Z,2.60
2018-12-23T17:25:41.070Z,2.73
2018-12-23T17:28:10.272Z,3.10
2018-12-23T17:30:39.473Z,3.30
2018-12-23T17:33:08.726Z,2.67
2018-12-23T17:35:37.971Z,2.57
2018-12-23T17:38:07.195Z,2.53
2018-12-23T17:40:36.395Z,2.73
2018-12-23T17:43:05.729Z,2.57
2018-12-23T17:45:35.164Z,2.00
2018-12-23T17:48:04.420Z,2.70
2018-12-23T17:50:33.648Z,2.00
2018-12-23T17:53:02.898Z,2.20
2018-12-23T17:55:32.104Z,1.73
2018-12-23T17:58:01.348Z,2.07
2018-12-23T18:00:30.586Z,1.90
2018-12-23T18:02:59.833Z,2.00
2018-12-23T18:05:29.044Z,2.57
2018-12-23T18:07:58.248Z,2.00
2018-12-23T18:10:27.473Z,1.63
2018-12-23T18:12:56.768Z,2.53
2018-12-23T18:15:27.076Z,3.07
2018-12-23T18:17:56.475Z,3.03
2018-12-23T18:20:25.779Z,3.20
2018-12-23T18:22:55.086Z,2.20
2018-12-23T18:25:24.373Z,2.10
2018-12-23T18:27:53.633Z,1.90
2018-12-23T18:30:22.860Z,1.73
2018-12-23T18:32:52.095Z,1.70
2018-12-23T18:35:21.289Z,2.30
2018-12-23T18:37:50.511Z,1.47
2018-12-23T18:40:51.762Z,1.63
2018-12-23T18:43:21.723Z,1.97
2018-12-23T18:45:51.727Z,3.00
2018-12-23T18:48:21.791Z,2.87
2018-12-23T18:50:51.779Z,3.03
2018-12-23T18:53:21.781Z,3.20
2018-12-23T18:55:51.749Z,3.03
2018-12-23T18:58:21.818Z,4.60
2018-12-23T19:00:55.872Z,5.00
2018-12-23T19:03:25.852Z,2.90
2018-12-23T19:05:55.875Z,2.50
2018-12-23T19:08:59.537Z,2.10
2018-12-23T19:12:12.912Z,2.07
2018-12-23T19:15:15.111Z,1.33
2018-12-23T19:18:44.019Z,1.60
2018-12-23T19:21:32.920Z,2.10
2018-12-23T19:24:48.106Z,3.30
2018-12-23T19:28:26.465Z,2.53
2018-12-23T19:31:26.656Z,2.60
2018-12-23T19:34:36.046Z,1.50
2018-12-23T19:37:45.055Z,1.53
2018-12-23T19:41:02.152Z,1.30
2018-12-23T19:44:02.675Z,1.43
2018-12-23T19:47:22.700Z,1.00
2018-12-23T19:50:29.540Z,1.40
2018-12-23T19:53:51.313Z,0.77
2018-12-23T19:56:56.735Z,1.33
2018-12-23T20:00:13.875Z,0.90
2018-12-23T20:02:57.886Z,1.00
2018-12-23T20:06:07.356Z,1.17
2018-12-23T20:09:17.167Z,2.03
2018-12-23T20:12:41.424Z,2.23
2018-12-23T20:16:00.435Z,1.40
2018-12-23T20:19:23.945Z,6.43
2018-12-23T20:22:41.179Z,4.00
2018-12-23T20:25:21.523Z,4.00
2018-12-23T20:28:32.049Z,5.90
2018-12-23T20:31:38.735Z,4.20
2018-12-23T20:34:55.612Z,3.20
2018-12-23T20:37:50.251Z,2.77
2018-12-23T20:41:08.544Z,2.93
2018-12-23T20:44:20.898Z,6.87
2018-12-23T20:47:24.388Z,11.30
2018-12-23T20:50:50.146Z,4.00
2018-12-23T20:54:01.356Z,1.90
2018-12-23T20:57:18.332Z,1.33
2018-12-23T21:00:43.004Z,1.40
2018-12-23T21:03:55.301Z,2.00
2018-12-23T21:06:49.058Z,2.40
2018-12-23T21:09:55.923Z,4.50
2018-12-23T21:13:09.121Z,4.70
2018-12-23T21:16:20.028Z,4.17
2018-12-23T21:19:39.333Z,4.30
2018-12-23T21:22:43.571Z,2.70
2018-12-23T21:25:54.166Z,2.03
2018-12-23T21:28:45.236Z,2.87
2018-12-23T21:31:51.599Z,2.13
2018-12-23T21:34:59.528Z,2.30
2018-12-23T21:37:59.946Z,1.70
2018-12-23T21:41:10.672Z,2.23
2018-12-23T21:44:23.894Z,3.57
2018-12-23T21:47:34.001Z,2.33
2018-12-23T21:50:40.649Z,2.50
2018-12-23T21:53:52.538Z,2.70
2018-12-23T21:57:00.644Z,1.90
2018-12-23T22:00:10.438Z,1.80
2018-12-23T22:03:20.383Z,3.03
2018-12-23T22:06:32.298Z,7.67
2018-12-23T22:09:35.451Z,2.73
2018-12-23T22:12:43.603Z,1.90
2018-12-23T22:15:13.599Z,1.17
2018-12-23T22:17:43.523Z,1.00
2018-12-23T22:20:13.553Z,1.33
2018-12-23T22:22:43.511Z,1.40
2018-12-23T22:25:13.535Z,1.07
2018-12-23T22:27:43.524Z,1.37
2018-12-23T22:30:13.447Z,3.07
2018-12-23T22:32:43.466Z,2.93
2018-12-23T22:35:13.504Z,2.00
2018-12-23T22:37:43.458Z,1.90
2018-12-23T22:40:13.386Z,1.90
2018-12-23T22:42:43.340Z,1.80
2018-12-23T22:45:13.347Z,1.87
2018-12-23T22:47:43.352Z,2.20
2018-12-23T22:50:13.360Z,1.90
2018-12-23T22:52:43.288Z,1.90
2018-12-23T22:55:13.240Z,1.47
2018-12-23T22:57:43.222Z,1.57
2018-12-23T23:00:15.812Z,1.93
2018-12-23T23:02:45.843Z,1.50
2018-12-23T23:05:15.952Z,1.67
2018-12-23T23:07:45.944Z,1.20
2018-12-23T23:10:15.908Z,1.20
2018-12-23T23:12:45.883Z,1.50
2018-12-23T23:15:15.843Z,1.20
2018-12-23T23:17:45.819Z,1.87
2018-12-23T23:20:15.745Z,3.50
2018-12-23T23:22:45.694Z,2.53
2018-12-23T23:25:15.639Z,1.87
2018-12-23T23:27:45.583Z,1.37
2018-12-23T23:30:15.507Z,1.40
2018-12-23T23:32:45.469Z,1.30
2018-12-23T23:35:15.442Z,1.77
2018-12-23T23:37:45.432Z,1.07
2018-12-23T23:40:15.390Z,0.90
2018-12-23T23:42:45.467Z,1.03
2018-12-23T23:45:15.424Z,1.10
2018-12-23T23:47:45.447Z,0.83
2018-12-23T23:50:15.391Z,0.73
2018-12-23T23:52:45.319Z,0.90
2018-12-23T23:55:15.308Z,1.40
2018-12-23T23:57:45.258Z,2.57
